createdAt,value
2023-04-19T00:00:06.163Z,5.80
2023-04-19T00:02:34.236Z,5.90
2023-04-19T00:05:05.314Z,5.80
2023-04-19T00:07:33.499Z,5.80
2023-04-19T00:10:01.565Z,5.90
2023-04-19T00:12:29.571Z,5.90
2023-04-19T00:14:57.538Z,5.90
2023-04-19T00:17:25.548Z,5.90
2023-04-19T00:19:53.863Z,6.00
2023-04-19T00:22:23.295Z,6.00
2023-04-19T00:24:51.249Z,6.00
2023-04-19T00:27:19.241Z,6.00
2023-04-19T00:29:47.206Z,6.10
2023-04-19T00:32:15.264Z,6.10
2023-04-19T00:34:43.440Z,6.10
2023-04-19T00:37:12.116Z,6.20
2023-04-19T00:39:41.503Z,6.40
2023-04-19T00:42:09.566Z,6.20
2023-04-19T00:44:37.611Z,6.20
2023-04-19T00:47:06.128Z,6.20
2023-04-19T00:49:34.224Z,6.20
2023-04-19T00:52:02.337Z,6.20
2023-04-19T00:54:30.869Z,6.20
2023-04-19T00:57:01.700Z,6.20
2023-04-19T00:59:30.255Z,6.20
2023-04-19T01:01:58.390Z,6.30
2023-04-19T01:04:26.669Z,6.20
2023-04-19T01:06:55.323Z,6.20
2023-04-19T01:09:23.372Z,6.20
2023-04-19T01:11:51.805Z,6.10
2023-04-19T01:14:21.348Z,6.20
2023-04-19T01:16:49.310Z,6.20
2023-04-19T01:19:17.367Z,6.10
2023-04-19T01:21:46.519Z,6.10
2023-04-19T01:24:16.223Z,6.20
2023-04-19T01:26:44.367Z,6.20
2023-04-19T01:29:12.395Z,6.20
2023-04-19T01:31:40.491Z,6.20
2023-04-19T01:34:08.540Z,6.20
2023-04-19T01:36:36.487Z,6.10
2023-04-19T01:39:04.412Z,6.10
2023-04-19T01:41:33.797Z,6.10
2023-04-19T01:44:02.018Z,6.10
2023-04-19T01:46:30.140Z,6.10
2023-04-19T01:48:58.248Z,6.10
2023-04-19T01:51:26.234Z,6.10
2023-04-19T01:53:54.835Z,6.00
2023-04-19T01:56:22.984Z,6.00
2023-04-19T01:58:52.405Z,5.90
2023-04-19T02:01:20.587Z,5.90
2023-04-19T02:03:49.003Z,5.90
2023-04-19T02:06:17.433Z,5.80
2023-04-19T02:08:45.420Z,5.70
2023-04-19T02:11:15.564Z,5.60
2023-04-19T02:13:44.109Z,5.60
2023-04-19T02:16:13.622Z,5.50
2023-04-19T02:18:41.959Z,5.30
2023-04-19T02:21:11.891Z,5.30
2023-04-19T02:23:39.796Z,5.20
2023-04-19T02:26:07.719Z,5.10
2023-04-19T02:28:35.734Z,5.00
2023-04-19T02:31:07.256Z,4.90
2023-04-19T02:33:37.069Z,4.90
2023-04-19T02:36:05.336Z,4.80
2023-04-19T02:38:33.287Z,4.80
2023-04-19T02:41:04.264Z,4.90
2023-04-19T02:43:32.211Z,4.80
2023-04-19T02:46:00.179Z,4.80
2023-04-19T02:48:28.177Z,4.80
2023-04-19T02:50:57.597Z,4.80
2023-04-19T02:53:25.532Z,4.70
2023-04-19T02:55:53.586Z,4.60
2023-04-19T02:58:21.538Z,4.60
2023-04-19T03:00:49.491Z,4.50
2023-04-19T03:03:17.536Z,4.40
2023-04-19T03:05:45.722Z,4.30
2023-04-19T03:08:15.038Z,4.20
2023-04-19T03:10:43.066Z,4.10
2023-04-19T03:13:11.332Z,4.10
2023-04-19T03:15:39.378Z,4.00
2023-04-19T03:18:07.444Z,4.00
2023-04-19T03:20:35.465Z,3.90
2023-04-19T03:23:03.538Z,3.80
2023-04-19T03:25:33.400Z,3.80
2023-04-19T03:28:01.277Z,3.80
2023-04-19T03:30:29.273Z,3.80
2023-04-19T03:32:58.603Z,3.70
2023-04-19T03:35:26.615Z,3.70
2023-04-19T03:37:54.532Z,3.70
2023-04-19T03:40:22.772Z,3.60
2023-04-19T03:42:52.049Z,3.60
2023-04-19T03:45:20.402Z,3.60
2023-04-19T03:47:48.306Z,3.50
2023-04-19T03:50:16.218Z,3.50
2023-04-19T03:52:44.158Z,3.40
2023-04-19T03:55:12.476Z,3.40
2023-04-19T03:57:40.493Z,3.40
2023-04-19T04:00:10.896Z,3.30
2023-04-19T04:02:39.986Z,3.30
2023-04-19T04:05:08.877Z,3.30
2023-04-19T04:07:37.086Z,3.30
2023-04-19T04:10:05.714Z,3.30
2023-04-19T04:12:33.700Z,3.30
2023-04-19T04:15:01.765Z,3.30
2023-04-19T04:17:31.092Z,3.30
2023-04-19T04:19:59.044Z,3.20
2023-04-19T04:22:26.946Z,3.20
2023-04-19T04:24:58.162Z,3.20
2023-04-19T04:27:26.346Z,3.10
2023-04-19T04:29:54.536Z,3.10
2023-04-19T04:32:23.521Z,3.20
2023-04-19T04:34:53.210Z,3.30
2023-04-19T04:37:21.116Z,3.30
2023-04-19T04:39:49.010Z,3.40
2023-04-19T04:42:17.560Z,3.40
2023-04-19T04:44:47.384Z,3.50
2023-04-19T04:47:15.539Z,3.50
2023-04-19T04:49:43.415Z,3.50
2023-04-19T04:52:12.785Z,3.50
2023-04-19T04:54:41.140Z,3.60
2023-04-19T04:57:10.153Z,3.70
2023-04-19T04:59:38.086Z,3.70
2023-04-19T05:02:06.129Z,3.80
2023-04-19T05:04:34.253Z,4.10
2023-04-19T05:07:02.216Z,4.60
2023-04-19T05:09:31.600Z,5.10
2023-04-19T05:11:59.543Z,5.60
2023-04-19T05:14:27.502Z,6.10
2023-04-19T05:16:55.394Z,6.40
2023-04-19T05:19:23.352Z,7.10
2023-04-19T05:21:51.287Z,7.80
2023-04-19T05:24:19.258Z,8.50
2023-04-19T05:26:48.624Z,8.80
2023-04-19T05:29:17.936Z,9.10
2023-04-19T05:31:46.041Z,9.00
2023-04-19T05:34:14.146Z,9.00
2023-04-19T05:36:42.316Z,9.20
2023-04-19T05:39:10.502Z,9.40
2023-04-19T05:41:38.559Z,9.30
2023-04-19T05:44:08.486Z,8.80
2023-04-19T05:46:36.719Z,9.20
2023-04-19T05:49:04.842Z,10.10
2023-04-19T05:51:32.971Z,9.90
2023-04-19T05:54:01.474Z,10.30
2023-04-19T05:56:29.593Z,10.40
2023-04-19T05:58:57.517Z,10.50
2023-04-19T06:01:26.936Z,10.40
2023-04-19T06:03:55.088Z,10.50
2023-04-19T06:06:24.191Z,10.30
2023-04-19T06:08:54.585Z,10.20
2023-04-19T06:11:29.257Z,10.20
2023-04-19T06:13:59.628Z,10.00
2023-04-19T06:16:28.922Z,10.00
2023-04-19T06:18:56.844Z,10.20
2023-04-19T06:21:24.871Z,10.20
2023-04-19T06:23:52.821Z,10.20
2023-04-19T06:26:20.760Z,10.10
2023-04-19T06:28:48.696Z,10.40
2023-04-19T06:31:16.767Z,10.60
2023-04-19T06:33:46.135Z,10.60
2023-04-19T06:36:14.088Z,10.40
2023-04-19T06:38:41.970Z,10.10
2023-04-19T06:41:10.491Z,9.30
2023-04-19T06:43:39.537Z,9.20
2023-04-19T06:46:07.968Z,9.30
2023-04-19T06:48:36.331Z,9.20
2023-04-19T06:51:06.109Z,9.20
2023-04-19T06:53:34.484Z,9.30
2023-04-19T06:56:04.476Z,9.50
2023-04-19T06:58:34.943Z,9.80
2023-04-19T07:01:04.376Z,10.00
2023-04-19T07:03:32.940Z,10.20
2023-04-19T07:06:01.087Z,10.50
2023-04-19T07:08:46.353Z,10.50
2023-04-19T07:11:16.855Z,10.30
2023-04-19T07:13:45.188Z,10.60
2023-04-19T07:16:14.452Z,11.10
2023-04-19T07:18:42.660Z,10.90
2023-04-19T07:21:10.795Z,11.00
2023-04-19T07:23:40.372Z,11.20
2023-04-19T07:26:08.501Z,11.30
2023-04-19T07:28:36.482Z,11.70
2023-04-19T07:31:04.494Z,11.90
2023-04-19T07:33:32.602Z,11.90
2023-04-19T07:36:00.600Z,12.20
2023-04-19T07:38:28.575Z,12.30
2023-04-19T07:40:57.895Z,12.40
2023-04-19T07:43:26.133Z,12.50
2023-04-19T07:45:54.426Z,12.80
2023-04-19T07:48:22.466Z,13.00
2023-04-19T07:50:50.474Z,12.90
2023-04-19T07:53:18.481Z,12.80
2023-04-19T07:55:46.684Z,13.10
2023-04-19T07:58:16.002Z,13.00
2023-04-19T08:00:44.012Z,13.30
2023-04-19T08:03:12.246Z,13.80
2023-04-19T08:05:40.346Z,13.90
2023-04-19T08:08:08.444Z,13.70
2023-04-19T08:10:37.000Z,13.90
2023-04-19T08:13:06.256Z,14.10
2023-04-19T08:18:07.412Z,13.90
2023-04-19T08:20:36.853Z,13.80
2023-04-19T08:23:14.398Z,12.90
2023-04-19T08:25:49.339Z,13.10
2023-04-19T08:28:18.049Z,13.30
2023-04-19T08:30:47.641Z,13.80
2023-04-19T08:33:16.114Z,14.40
2023-04-19T08:35:45.755Z,14.50
2023-04-19T08:38:13.982Z,14.80
2023-04-19T08:40:48.190Z,15.10
2023-04-19T08:43:18.116Z,15.30
2023-04-19T08:45:50.607Z,15.60
2023-04-19T08:48:19.503Z,15.20
2023-04-19T08:51:03.673Z,14.90
2023-04-19T08:53:35.651Z,14.70
2023-04-19T08:56:12.956Z,14.70
2023-04-19T08:59:07.558Z,14.70
2023-04-19T09:01:36.414Z,14.90
2023-04-19T09:04:21.098Z,14.70
2023-04-19T09:06:55.285Z,14.90
2023-04-19T09:09:35.565Z,15.00
2023-04-19T09:12:17.659Z,14.90
2023-04-19T09:14:59.853Z,14.60
2023-04-19T09:17:31.298Z,14.90
2023-04-19T09:20:00.410Z,14.90
2023-04-19T09:22:28.661Z,14.10
2023-04-19T09:27:32.154Z,14.60
2023-04-19T09:30:01.503Z,14.80
2023-04-19T09:32:46.270Z,14.50
2023-04-19T09:35:14.396Z,14.50
2023-04-19T09:40:23.711Z,15.10
2023-04-19T09:48:05.248Z,14.40
2023-04-19T09:50:38.887Z,14.00
2023-04-19T09:53:18.882Z,14.10
2023-04-19T09:55:57.674Z,13.90
2023-04-19T09:58:38.184Z,13.50
2023-04-19T10:01:17.790Z,14.10
2023-04-19T10:03:51.267Z,14.70
2023-04-19T10:08:54.607Z,14.30
2023-04-19T10:11:25.286Z,13.70
2023-04-19T10:13:58.205Z,13.50
2023-04-19T10:16:27.457Z,13.90
2023-04-19T10:19:00.831Z,14.10
2023-04-19T10:21:31.058Z,14.30
2023-04-19T10:23:59.987Z,14.40
2023-04-19T10:26:28.359Z,14.50
2023-04-19T10:28:57.557Z,14.70
2023-04-19T10:31:27.647Z,14.90
2023-04-19T10:33:57.800Z,15.10
2023-04-19T10:36:29.579Z,14.90
2023-04-19T10:38:57.670Z,14.50
2023-04-19T10:41:25.712Z,14.10
2023-04-19T10:44:12.627Z,14.10
2023-04-19T10:46:41.580Z,14.30
2023-04-19T10:49:13.810Z,14.60
2023-04-19T10:51:44.248Z,14.70
2023-04-19T10:54:31.184Z,14.40
2023-04-19T10:57:04.688Z,14.20
2023-04-19T10:59:33.978Z,14.00
2023-04-19T11:02:03.307Z,13.90
2023-04-19T11:05:01.770Z,13.80
2023-04-19T11:07:29.778Z,13.40
2023-04-19T11:09:57.797Z,13.30
2023-04-19T11:15:09.574Z,13.10
2023-04-19T11:17:39.527Z,12.60
2023-04-19T11:20:11.267Z,12.30
2023-04-19T11:22:41.986Z,12.30
2023-04-19T11:25:12.257Z,12.50
2023-04-19T11:27:40.948Z,12.80
2023-04-19T11:30:12.928Z,13.20
2023-04-19T11:32:48.303Z,13.50
2023-04-19T11:35:20.740Z,13.80
2023-04-19T11:37:48.808Z,13.90
2023-04-19T11:40:17.546Z,13.70
2023-04-19T11:42:46.289Z,13.70
2023-04-19T11:45:30.270Z,13.70
2023-04-19T11:47:59.723Z,13.60
2023-04-19T11:50:37.985Z,13.60
2023-04-19T11:53:16.683Z,13.50
2023-04-19T11:55:46.377Z,13.60
2023-04-19T11:58:32.063Z,13.60
2023-04-19T12:01:06.682Z,13.40
2023-04-19T12:03:35.701Z,13.30
2023-04-19T12:06:09.083Z,13.30
2023-04-19T12:08:38.744Z,13.40
2023-04-19T12:11:07.966Z,13.20
2023-04-19T12:13:37.414Z,13.20
2023-04-19T12:16:06.172Z,13.20
2023-04-19T12:18:49.059Z,13.20
2023-04-19T12:21:29.374Z,13.10
2023-04-19T12:23:58.275Z,12.90
2023-04-19T12:26:27.079Z,12.90
2023-04-19T12:28:55.558Z,12.90
2023-04-19T12:31:23.910Z,13.10
2023-04-19T12:33:52.131Z,13.20
2023-04-19T12:36:20.192Z,13.10
2023-04-19T12:38:49.544Z,13.20
2023-04-19T12:41:17.508Z,13.50
2023-04-19T12:43:45.376Z,13.70
2023-04-19T12:46:13.379Z,14.00
2023-04-19T12:48:41.223Z,14.30
2023-04-19T12:51:11.759Z,14.30
2023-04-19T12:53:39.663Z,14.10
2023-04-19T12:56:09.126Z,13.90
2023-04-19T12:58:37.001Z,13.60
2023-04-19T13:01:05.031Z,13.50
2023-04-19T13:03:36.452Z,13.50
2023-04-19T13:06:04.844Z,13.70
2023-04-19T13:08:44.266Z,13.80
2023-04-19T13:11:15.067Z,13.80
2023-04-19T13:13:43.141Z,13.90
2023-04-19T13:16:11.244Z,13.70
2023-04-19T13:18:39.498Z,13.90
2023-04-19T13:21:08.439Z,14.00
2023-04-19T13:23:36.828Z,14.00
2023-04-19T13:26:04.852Z,14.00
2023-04-19T13:28:35.769Z,13.70
2023-04-19T13:31:04.765Z,13.40
2023-04-19T13:33:32.800Z,13.40
2023-04-19T13:36:00.685Z,13.40
2023-04-19T13:38:28.593Z,13.40
2023-04-19T13:40:56.572Z,13.50
2023-04-19T13:43:24.615Z,13.70
2023-04-19T13:45:54.016Z,14.00
2023-04-19T13:48:22.006Z,14.40
2023-04-19T13:50:51.422Z,14.60
2023-04-19T13:53:19.496Z,14.60
2023-04-19T13:55:47.558Z,14.30
2023-04-19T13:58:15.557Z,13.90
2023-04-19T14:00:43.706Z,13.40
2023-04-19T14:03:13.205Z,13.20
2023-04-19T14:05:41.365Z,13.30
2023-04-19T14:08:09.504Z,13.50
2023-04-19T14:10:38.144Z,13.60
2023-04-19T14:13:06.454Z,13.60
2023-04-19T14:15:34.618Z,13.40
2023-04-19T14:18:03.398Z,13.20
2023-04-19T14:20:32.714Z,12.80
2023-04-19T14:23:01.184Z,12.50
2023-04-19T14:25:29.236Z,12.30
2023-04-19T14:27:57.194Z,12.30
2023-04-19T14:30:26.253Z,12.20
2023-04-19T14:32:54.563Z,12.20
2023-04-19T14:35:23.013Z,12.10
2023-04-19T14:37:52.334Z,12.10
2023-04-19T14:40:20.972Z,12.00
2023-04-19T14:42:48.883Z,12.10
2023-04-19T14:45:16.937Z,12.10
2023-04-19T14:47:45.281Z,11.90
2023-04-19T14:50:13.148Z,11.70
2023-04-19T14:52:41.533Z,11.70
2023-04-19T14:55:12.144Z,11.60
2023-04-19T14:57:40.199Z,11.50
2023-04-19T15:00:09.560Z,11.50
2023-04-19T15:02:37.878Z,11.50
2023-04-19T15:05:07.447Z,11.40
2023-04-19T15:07:35.524Z,11.50
2023-04-19T15:10:03.887Z,11.50
2023-04-19T15:12:33.183Z,11.40
2023-04-19T15:15:01.276Z,11.30
2023-04-19T15:17:29.293Z,11.20
2023-04-19T15:19:58.533Z,11.20
2023-04-19T15:22:26.817Z,11.20
2023-04-19T15:24:54.755Z,11.20
2023-04-19T15:27:22.868Z,11.20
2023-04-19T15:29:52.180Z,11.00
2023-04-19T15:32:20.624Z,11.00
2023-04-19T15:34:48.627Z,10.90
2023-04-19T15:37:16.693Z,10.80
2023-04-19T15:39:44.660Z,10.60
2023-04-19T15:42:12.581Z,10.50
2023-04-19T15:44:42.764Z,10.30
2023-04-19T15:47:14.035Z,10.20
2023-04-19T15:49:42.003Z,10.00
2023-04-19T15:52:10.351Z,9.70
2023-04-19T15:54:38.529Z,9.20
2023-04-19T15:57:06.546Z,8.60
2023-04-19T15:59:34.447Z,8.20
2023-04-19T16:02:02.512Z,7.90
2023-04-19T16:04:32.208Z,7.50
2023-04-19T16:07:00.542Z,7.10
2023-04-19T16:09:28.714Z,6.90
2023-04-19T16:11:56.602Z,6.70
2023-04-19T16:14:25.305Z,6.60
2023-04-19T16:16:53.870Z,6.50
2023-04-19T16:19:24.630Z,6.30
2023-04-19T16:21:53.937Z,6.20
2023-04-19T16:24:21.949Z,6.10
2023-04-19T16:26:49.863Z,5.90
2023-04-19T16:29:17.948Z,5.80
2023-04-19T16:31:46.077Z,5.90
2023-04-19T16:34:14.126Z,5.90
2023-04-19T16:36:44.821Z,5.90
2023-04-19T16:39:14.899Z,5.80
2023-04-19T16:41:43.905Z,5.80
2023-04-19T16:44:12.848Z,5.80
2023-04-19T16:46:40.776Z,5.70
2023-04-19T16:49:08.842Z,5.60
2023-04-19T16:51:36.903Z,5.50
2023-04-19T16:54:05.045Z,5.50
2023-04-19T16:56:34.418Z,5.50
2023-04-19T16:59:02.352Z,5.50
2023-04-19T17:01:30.494Z,5.40
2023-04-19T17:03:58.594Z,5.40
2023-04-19T17:06:27.796Z,5.40
2023-04-19T17:08:55.880Z,5.40
2023-04-19T17:11:23.864Z,5.40
2023-04-19T17:13:54.815Z,5.30
2023-04-19T17:16:24.753Z,5.30
2023-04-19T17:18:55.300Z,5.30
2023-04-19T17:21:23.314Z,5.30
2023-04-19T17:23:51.318Z,5.30
2023-04-19T17:26:19.301Z,5.30
2023-04-19T17:28:47.260Z,5.20
2023-04-19T17:31:17.026Z,5.30
2023-04-19T17:33:44.986Z,5.30
2023-04-19T17:36:12.946Z,5.20
2023-04-19T17:38:40.905Z,5.20
2023-04-19T17:41:15.902Z,5.20
2023-04-19T17:43:43.918Z,5.20
2023-04-19T17:46:12.348Z,5.20
2023-04-19T17:48:42.067Z,5.20
2023-04-19T17:51:10.202Z,5.30
2023-04-19T17:53:38.290Z,5.30
2023-04-19T17:56:06.490Z,5.30
2023-04-19T17:58:35.744Z,5.30
2023-04-19T18:01:04.155Z,5.30
2023-04-19T18:03:32.609Z,5.20
2023-04-19T18:06:02.083Z,5.20
2023-04-19T18:08:30.060Z,5.20
2023-04-19T18:10:58.246Z,5.20
2023-04-19T18:13:26.580Z,5.20
2023-04-19T18:15:54.900Z,5.20
2023-04-19T18:18:23.335Z,5.20
2023-04-19T18:20:51.252Z,5.20
2023-04-19T18:23:20.581Z,5.10
2023-04-19T18:25:54.289Z,5.10
2023-04-19T18:28:22.309Z,5.10
2023-04-19T18:30:51.418Z,5.20
2023-04-19T18:33:19.385Z,5.20
2023-04-19T18:35:47.352Z,5.10
2023-04-19T18:38:15.259Z,5.20
2023-04-19T18:40:44.570Z,5.20
2023-04-19T18:43:12.505Z,5.10
2023-04-19T18:45:40.752Z,5.20
2023-04-19T18:48:08.941Z,5.20
2023-04-19T18:50:38.971Z,5.10
2023-04-19T18:53:06.818Z,5.20
2023-04-19T18:55:34.722Z,5.20
2023-04-19T18:58:03.995Z,5.20
2023-04-19T19:00:31.935Z,5.20
2023-04-19T19:03:00.962Z,5.20
2023-04-19T19:05:30.812Z,5.10
2023-04-19T19:07:59.244Z,5.10
2023-04-19T19:13:03.459Z,5.10
2023-04-19T19:15:32.020Z,5.10
2023-04-19T19:18:00.121Z,5.10
2023-04-19T19:20:29.317Z,5.10
2023-04-19T19:22:57.560Z,5.20
2023-04-19T19:25:25.588Z,5.20
2023-04-19T19:28:06.149Z,5.20
2023-04-19T19:30:39.840Z,5.20
2023-04-19T19:33:08.143Z,5.20
2023-04-19T19:35:36.113Z,5.30
2023-04-19T19:38:04.366Z,5.30
2023-04-19T19:40:33.064Z,5.30
2023-04-19T19:43:01.419Z,5.40
2023-04-19T19:45:30.775Z,5.40
2023-04-19T19:48:00.932Z,5.40
2023-04-19T19:53:01.420Z,5.40
2023-04-19T19:55:30.180Z,5.40
2023-04-19T20:03:02.076Z,5.40
2023-04-19T20:05:30.698Z,5.50
2023-04-19T20:08:27.028Z,5.50
2023-04-19T20:11:06.723Z,5.60
2023-04-19T20:13:34.649Z,5.70
2023-04-19T20:16:02.869Z,5.80
2023-04-19T20:18:32.307Z,5.80
2023-04-19T20:21:00.363Z,5.80
2023-04-19T20:23:28.277Z,5.80
2023-04-19T20:25:56.227Z,5.80
2023-04-19T20:28:24.334Z,5.70
2023-04-19T20:30:52.290Z,5.90
2023-04-19T20:33:20.714Z,5.90
2023-04-19T20:35:50.895Z,5.90
2023-04-19T20:38:19.562Z,6.00
2023-04-19T20:40:47.476Z,6.00
2023-04-19T20:43:16.110Z,5.90
2023-04-19T20:45:44.072Z,6.00
2023-04-19T20:48:13.266Z,6.00
2023-04-19T20:50:42.181Z,6.00
2023-04-19T20:53:11.450Z,6.00
2023-04-19T20:55:39.929Z,6.00
2023-04-19T20:58:07.992Z,6.00
2023-04-19T21:00:35.922Z,6.00
2023-04-19T21:03:04.311Z,6.10
2023-04-19T21:05:33.262Z,6.10
2023-04-19T21:08:01.158Z,6.00
2023-04-19T21:10:30.766Z,6.20
2023-04-19T21:12:58.682Z,6.20
2023-04-19T21:15:26.635Z,6.20
2023-04-19T21:17:54.638Z,6.10
2023-04-19T21:20:22.719Z,6.10
2023-04-19T21:22:51.295Z,6.10
2023-04-19T21:25:19.188Z,6.10
2023-04-19T21:27:48.449Z,6.10
2023-04-19T21:30:16.518Z,6.10
2023-04-19T21:32:44.557Z,6.10
2023-04-19T21:35:12.600Z,6.10
2023-04-19T21:37:40.596Z,6.10
2023-04-19T21:40:09.543Z,6.10
2023-04-19T21:42:37.532Z,6.10
2023-04-19T21:45:08.321Z,6.10
2023-04-19T21:47:36.422Z,6.00
2023-04-19T21:50:04.677Z,6.10
2023-04-19T21:52:32.591Z,6.20
2023-04-19T21:55:00.488Z,6.20
2023-04-19T21:57:28.446Z,6.20
2023-04-19T21:59:56.375Z,6.20
2023-04-19T22:02:25.860Z,6.20
2023-04-19T22:04:54.020Z,6.20
2023-04-19T22:07:23.974Z,6.30
2023-04-19T22:09:52.307Z,6.20
2023-04-19T22:12:20.273Z,6.20
2023-04-19T22:14:48.181Z,6.10
2023-04-19T22:17:18.627Z,6.20
2023-04-19T22:19:48.678Z,6.20
2023-04-19T22:22:16.721Z,6.20
2023-04-19T22:24:56.793Z,6.20
2023-04-19T22:27:25.906Z,6.10
2023-04-19T22:29:54.083Z,6.10
2023-04-19T22:32:22.244Z,6.10
2023-04-19T22:34:53.282Z,6.10
2023-04-19T22:37:21.252Z,6.20
2023-04-19T22:39:49.336Z,6.10
2023-04-19T22:42:17.302Z,6.20
2023-04-19T22:44:48.149Z,6.10
2023-04-19T22:47:16.479Z,6.10
2023-04-19T22:49:45.079Z,6.10
2023-04-19T22:52:14.506Z,6.10
2023-04-19T22:54:42.782Z,6.10
2023-04-19T22:57:11.910Z,6.10
2023-04-19T22:59:39.921Z,6.00
2023-04-19T23:02:07.864Z,6.10
2023-04-19T23:04:38.030Z,6.10
2023-04-19T23:07:06.219Z,6.10
2023-04-19T23:09:39.073Z,6.10
2023-04-19T23:12:09.972Z,6.10
2023-04-19T23:14:38.894Z,6.10
2023-04-19T23:17:07.398Z,6.00
2023-04-19T23:19:36.560Z,6.00
2023-04-19T23:22:04.579Z,6.00
2023-04-19T23:24:32.474Z,6.10
2023-04-19T23:27:01.895Z,6.10
2023-04-19T23:29:30.012Z,6.00
2023-04-19T23:31:58.437Z,6.10
2023-04-19T23:34:26.337Z,6.00
2023-04-19T23:36:54.147Z,6.00
2023-04-19T23:39:22.022Z,6.10
2023-04-19T23:41:49.950Z,6.10
2023-04-19T23:44:19.125Z,6.10
2023-04-19T23:46:47.065Z,6.10
2023-04-19T23:49:15.238Z,6.20
2023-04-19T23:51:43.307Z,6.00
2023-04-19T23:54:11.461Z,6.00
2023-04-19T23:56:39.249Z,6.00
2023-04-19T23:59:07.089Z,6.00
